Marshalls Creek, Pennsylvania
Current Conditions -  °F | °C
As of 4:20 PM on Wednesday 26 Nov 2014 (Local Time) from KMPO Reporting Station
Light Snow Light Snow  
Wind Chill: -6°   Ceiling: 1600
Heat Index: -1°   Visibility: 0.75mi
Dew Point: -3°   Wind: 12mph
Humidity: 88%   Direction: 340°NNW
Pressure: 29.82"   Gusts: NA
Location:  41.04°N, 75.13°W
Report Text: KMPO 262120Z AUTO 34010KT 3/4SM -SN BR VV016 M01/M03 A2982 RMK AO2 P0000 T10111028
Loading
Personal Weather Stations






























Interactive Weather Map New forecast layout! Learn more

10-Day Weather Forecast

Advertisements
Track Severe Weather on mobile